Time;durP1;ratioP1;P1;durP2;ratioP2;P2;SDS_P1;SDS_P2;PMS_P1;PMS_P2;Temp;Humidity;BMP_temperature;BMP_pressure;BME280_temperature;BME280_humidity;BME280_pressure;Samples;Min_cycle;Max_cycle;Signal;HPM_P1;HPM_P2
2021/01/23 00:01:37;;;;;;;2.15;1.40;;;6.90;92.50;;;;;;4956137;28;20059;-56
2021/01/23 00:04:02;;;;;;;2.20;1.40;;;6.80;92.40;;;;;;4939341;28;20134;-58
2021/01/23 00:06:28;;;;;;;2.13;1.45;;;6.80;92.40;;;;;;4955482;28;20782;-58
2021/01/23 00:08:53;;;;;;;2.08;1.30;;;6.80;92.40;;;;;;4956516;28;20171;-57
2021/01/23 00:11:19;;;;;;;1.83;1.30;;;6.70;92.40;;;;;;4941016;28;20102;-57
2021/01/23 00:13:45;;;;;;;1.52;1.15;;;6.70;92.40;;;;;;4933622;28;20099;-57
2021/01/23 00:16:10;;;;;;;4.95;1.48;;;6.70;92.40;;;;;;4954228;28;20058;-57
2021/01/23 00:18:36;;;;;;;1.65;1.20;;;6.60;92.40;;;;;;4954187;28;20051;-56
2021/01/23 00:21:01;;;;;;;0.93;0.80;;;6.60;92.30;;;;;;4952633;28;20028;-58
2021/01/23 00:23:27;;;;;;;3.15;1.02;;;6.70;92.40;;;;;;4952933;29;20031;-57
2021/01/23 00:25:52;;;;;;;1.75;1.10;;;6.60;92.40;;;;;;4955123;28;20038;-54
2021/01/23 00:28:18;;;;;;;3.00;1.33;;;6.60;92.40;;;;;;4952990;28;20035;-56
2021/01/23 00:30:43;;;;;;;1.35;0.88;;;6.60;92.40;;;;;;4954615;28;20054;-56
2021/01/23 00:33:09;;;;;;;2.22;1.20;;;6.60;92.40;;;;;;4952344;29;20043;-56
2021/01/23 00:35:34;;;;;;;1.20;1.10;;;6.60;92.30;;;;;;4923483;29;20050;-56
2021/01/23 00:38:00;;;;;;;1.27;1.00;;;6.60;92.30;;;;;;4951246;29;20484;-58
2021/01/23 00:40:26;;;;;;;1.50;0.90;;;6.60;92.30;;;;;;4948391;28;20222;-57
2021/01/23 00:42:51;;;;;;;1.58;0.95;;;6.60;92.30;;;;;;4956055;28;20211;-57
2021/01/23 00:45:17;;;;;;;3.80;1.05;;;6.60;92.30;;;;;;4957030;28;20050;-56
2021/01/23 00:47:42;;;;;;;1.98;1.00;;;6.50;92.30;;;;;;4953821;28;20031;-57
2021/01/23 00:50:09;;;;;;;1.83;0.98;;;6.50;92.30;;;;;;4955692;28;20114;-57
2021/01/23 00:52:35;;;;;;;1.85;0.93;;;6.50;92.30;;;;;;4952126;28;20047;-57
2021/01/23 00:55:00;;;;;;;1.10;0.80;;;6.50;92.30;;;;;;4938154;29;20439;-57
2021/01/23 00:57:26;;;;;;;1.60;1.00;;;6.50;92.30;;;;;;4955324;28;20110;-56
2021/01/23 00:59:51;;;;;;;2.90;1.00;;;6.50;92.30;;;;;;4955324;28;20059;-57
2021/01/23 01:02:17;;;;;;;2.33;1.00;;;6.50;92.30;;;;;;4955683;28;20051;-57
2021/01/23 01:04:42;;;;;;;1.30;0.77;;;6.40;92.30;;;;;;4953595;28;20110;-57
2021/01/23 01:07:08;;;;;;;2.15;0.95;;;6.40;92.30;;;;;;4951968;28;20476;-57
2021/01/23 01:09:33;;;;;;;1.83;0.95;;;6.40;92.30;;;;;;4958427;28;20103;-56
2021/01/23 01:11:59;;;;;;;0.90;0.77;;;6.40;92.30;;;;;;4951838;29;20098;-58
2021/01/23 01:14:24;;;;;;;0.88;0.80;;;6.40;92.30;;;;;;4941325;28;20036;-57
2021/01/23 01:16:50;;;;;;;1.30;0.80;;;6.40;92.30;;;;;;4936618;29;20031;-58
2021/01/23 01:19:16;;;;;;;1.25;0.90;;;6.30;92.30;;;;;;4937849;28;20050;-56
2021/01/23 01:21:41;;;;;;;1.10;0.73;;;6.30;92.30;;;;;;4953254;28;20110;-57
2021/01/23 01:24:07;;;;;;;1.25;0.80;;;6.30;92.30;;;;;;4955955;28;20032;-57
2021/01/23 01:26:32;;;;;;;1.13;0.70;;;6.30;92.30;;;;;;4937443;29;20023;-57
2021/01/23 01:28:58;;;;;;;1.35;0.88;;;6.30;92.30;;;;;;4940530;28;20023;-57
2021/01/23 01:31:23;;;;;;;2.35;0.88;;;6.30;92.30;;;;;;4948257;28;20059;-58
2021/01/23 01:33:49;;;;;;;0.90;0.70;;;6.20;92.30;;;;;;4939853;28;20075;-60
2021/01/23 01:36:15;;;;;;;0.80;0.80;;;6.20;92.30;;;;;;4937497;29;20063;-58
2021/01/23 01:38:41;;;;;;;1.30;0.75;;;6.20;92.30;;;;;;4954697;28;20023;-57
2021/01/23 01:41:06;;;;;;;1.90;1.08;;;6.20;92.30;;;;;;4945885;29;20111;-56
2021/01/23 01:43:32;;;;;;;0.63;0.60;;;6.20;92.30;;;;;;4956060;28;20125;-56
2021/01/23 01:45:57;;;;;;;1.92;0.80;;;6.20;92.30;;;;;;4952422;28;20122;-57
2021/01/23 01:48:23;;;;;;;1.08;0.77;;;6.20;92.30;;;;;;4918380;29;20472;-57
2021/01/23 01:50:48;;;;;;;1.10;0.60;;;6.20;92.30;;;;;;4938277;29;20453;-58
2021/01/23 01:53:18;;;;;;;0.93;0.68;;;6.20;92.30;;;;;;4951597;29;20459;-57
2021/01/23 01:55:44;;;;;;;0.75;0.68;;;6.10;92.30;;;;;;4951471;28;20122;-58
2021/01/23 01:58:09;;;;;;;0.90;0.60;;;6.10;92.30;;;;;;4949968;28;20118;-57
2021/01/23 02:00:34;;;;;;;1.02;0.70;;;6.10;92.30;;;;;;4955821;28;20063;-57
2021/01/23 02:03:15;;;;;;;0.50;0.50;;;6.10;92.30;;;;;;4940108;29;20023;-58
2021/01/23 02:06:07;;;;;;;1.00;0.70;;;6.10;92.40;;;;;;4954951;28;20111;-56
2021/01/23 02:08:53;;;;;;;0.70;0.50;;;6.00;92.30;;;;;;4937119;29;20042;-57
2021/01/23 02:11:41;;;;;;;1.08;0.70;;;6.00;92.30;;;;;;4950556;28;20491;-57
2021/01/23 02:14:10;;;;;;;1.17;0.70;;;6.00;92.40;;;;;;4961195;28;20391;-57
2021/01/23 02:16:39;;;;;;;0.75;0.70;;;6.00;92.40;;;;;;4957669;28;20024;-57
2021/01/23 02:19:14;;;;;;;0.60;0.52;;;6.00;92.40;;;;;;4960849;28;20042;-57
2021/01/23 02:21:51;;;;;;;1.23;0.70;;;6.00;92.40;;;;;;4953962;29;20039;-57
2021/01/23 02:24:19;;;;;;;1.73;0.63;;;6.00;92.40;;;;;;4954445;28;20027;-57
2021/01/23 02:27:10;;;;;;;2.70;0.60;;;5.90;92.40;;;;;;4943262;29;20035;-57
2021/01/23 02:29:54;;;;;;;0.95;0.57;;;6.00;92.40;;;;;;4940018;29;20023;-56
2021/01/23 02:32:20;;;;;;;0.50;0.50;;;6.00;92.40;;;;;;4951679;29;20547;-56
2021/01/23 02:34:45;;;;;;;1.33;0.70;;;5.90;92.40;;;;;;4940049;29;20038;-58
2021/01/23 02:37:11;;;;;;;3.08;0.70;;;5.90;92.40;;;;;;4957396;28;20035;-57
2021/01/23 02:39:36;;;;;;;1.25;0.50;;;5.90;92.40;;;;;;4955915;28;20038;-58
2021/01/23 02:42:02;;;;;;;0.60;0.47;;;5.90;92.50;;;;;;4953593;28;20070;-58
2021/01/23 02:44:27;;;;;;;0.73;0.68;;;5.90;92.50;;;;;;4953851;28;20102;-57
2021/01/23 02:46:54;;;;;;;1.23;0.50;;;5.90;92.50;;;;;;4954624;28;20082;-56
2021/01/23 02:49:20;;;;;;;0.65;0.50;;;5.80;92.50;;;;;;4951017;28;20027;-56
2021/01/23 02:51:51;;;;;;;0.65;0.50;;;5.90;92.50;;;;;;4937107;28;20086;-56
2021/01/23 02:54:56;;;;;;;0.73;0.60;;;5.80;92.50;;;;;;4954159;28;20023;-56
2021/01/23 02:57:22;;;;;;;1.00;0.80;;;5.80;92.50;;;;;;4904519;29;20043;-58
2021/01/23 02:59:49;;;;;;;0.55;0.50;;;5.80;92.50;;;;;;4921103;29;20035;-58
2021/01/23 03:02:15;;;;;;;0.40;0.40;;;5.80;92.50;;;;;;4951253;28;20064;-57
2021/01/23 03:04:41;;;;;;;1.58;0.50;;;5.80;92.50;;;;;;4953471;28;20051;-57
2021/01/23 03:07:07;;;;;;;0.80;0.55;;;5.80;92.50;;;;;;4952439;28;20055;-56
2021/01/23 03:09:32;;;;;;;0.40;0.35;;;5.80;92.50;;;;;;4953959;28;20177;-57
2021/01/23 03:11:58;;;;;;;1.50;0.45;;;5.80;92.50;;;;;;4953151;28;20529;-58
2021/01/23 03:14:23;;;;;;;1.08;0.50;;;5.80;92.50;;;;;;4952821;28;20039;-57
2021/01/23 03:16:54;;;;;;;0.82;0.70;;;5.80;92.50;;;;;;4932155;28;21120;-56
2021/01/23 03:19:19;;;;;;;0.70;0.50;;;5.80;92.50;;;;;;4952511;28;20120;-57
2021/01/23 03:21:48;;;;;;;0.85;0.45;;;5.80;92.50;;;;;;4952640;28;20149;-57
2021/01/23 03:24:14;;;;;;;0.57;0.43;;;5.80;92.50;;;;;;4951810;28;20089;-57
2021/01/23 03:26:40;;;;;;;0.43;0.43;;;5.70;92.50;;;;;;4936818;29;20112;-57
2021/01/23 03:29:05;;;;;;;0.43;0.43;;;5.70;92.50;;;;;;4947125;28;20223;-56
2021/01/23 03:31:31;;;;;;;0.50;0.50;;;5.70;92.60;;;;;;4940885;28;20534;-57
2021/01/23 03:33:57;;;;;;;0.57;0.40;;;5.70;92.50;;;;;;4917967;29;20082;-57
2021/01/23 03:36:26;;;;;;;0.35;0.30;;;5.70;92.60;;;;;;4953717;28;20083;-56
2021/01/23 03:38:51;;;;;;;0.60;0.60;;;5.70;92.60;;;;;;4955444;28;20533;-56
2021/01/23 03:41:17;;;;;;;1.15;0.43;;;5.70;92.60;;;;;;4938822;28;20031;-57
2021/01/23 03:43:43;;;;;;;1.33;0.50;;;5.70;92.50;;;;;;4947204;28;20035;-57
2021/01/23 03:46:08;;;;;;;0.55;0.38;;;5.70;92.50;;;;;;4955144;28;20391;-58
2021/01/23 03:48:34;;;;;;;0.47;0.43;;;5.70;92.50;;;;;;4932811;29;20471;-56
2021/01/23 03:50:59;;;;;;;0.77;0.47;;;5.70;92.60;;;;;;4952868;28;20031;-56
2021/01/23 03:53:25;;;;;;;0.68;0.50;;;5.70;92.60;;;;;;4952753;28;20059;-57
2021/01/23 03:55:50;;;;;;;0.50;0.40;;;5.70;92.60;;;;;;4949487;28;20037;-57
2021/01/23 03:58:17;;;;;;;0.60;0.40;;;5.70;92.60;;;;;;4920639;29;20066;-57
2021/01/23 04:00:43;;;;;;;0.73;0.45;;;5.70;92.50;;;;;;4937971;28;20027;-57
2021/01/23 04:03:08;;;;;;;0.63;0.43;;;5.70;92.60;;;;;;4953827;28;20054;-57
2021/01/23 04:05:34;;;;;;;0.65;0.50;;;5.60;92.50;;;;;;4953735;28;20043;-57
2021/01/23 04:07:59;;;;;;;0.45;0.40;;;5.60;92.50;;;;;;4917592;28;20070;-58
2021/01/23 04:10:25;;;;;;;0.65;0.60;;;5.70;92.60;;;;;;4955539;28;20036;-57
2021/01/23 04:12:50;;;;;;;0.68;0.50;;;5.70;92.60;;;;;;4953691;28;20023;-56
2021/01/23 04:15:16;;;;;;;0.85;0.60;;;5.70;92.60;;;;;;4922688;28;20058;-57
2021/01/23 04:17:41;;;;;;;0.93;0.60;;;5.60;92.60;;;;;;4952245;28;20493;-57
2021/01/23 04:20:07;;;;;;;0.70;0.60;;;5.60;92.60;;;;;;4953079;28;20048;-56
2021/01/23 04:22:33;;;;;;;0.90;0.50;;;5.60;92.60;;;;;;4953041;28;20032;-58
2021/01/23 04:24:58;;;;;;;0.95;0.60;;;5.60;92.60;;;;;;4937409;29;20019;-57
2021/01/23 04:27:24;;;;;;;0.60;0.57;;;5.60;92.60;;;;;;4954001;28;20032;-57
2021/01/23 04:29:49;;;;;;;0.65;0.55;;;5.60;92.60;;;;;;4951938;28;20034;-56
2021/01/23 04:32:15;;;;;;;1.23;0.75;;;5.60;92.60;;;;;;4952634;28;20023;-56
2021/01/23 04:34:40;;;;;;;0.90;0.65;;;5.60;92.60;;;;;;4945429;28;20027;-57
2021/01/23 04:37:06;;;;;;;0.50;0.43;;;5.60;92.60;;;;;;4953167;28;20498;-57
2021/01/23 04:39:31;;;;;;;1.10;0.73;;;5.60;92.60;;;;;;4952533;28;20135;-56
2021/01/23 04:41:57;;;;;;;0.63;0.60;;;5.60;92.60;;;;;;4941244;29;20158;-56
2021/01/23 04:44:22;;;;;;;1.35;0.65;;;5.60;92.50;;;;;;4952865;28;20027;-57
2021/01/23 04:46:48;;;;;;;0.50;0.50;;;5.60;92.50;;;;;;4950010;28;20387;-56
2021/01/23 04:49:13;;;;;;;0.85;0.65;;;5.60;92.50;;;;;;4949291;28;20531;-57
2021/01/23 04:51:39;;;;;;;0.88;0.60;;;5.60;92.50;;;;;;4920795;29;20032;-56
2021/01/23 04:54:05;;;;;;;0.52;0.50;;;5.60;92.50;;;;;;4952772;28;20027;-57
2021/01/23 04:56:30;;;;;;;0.52;0.47;;;5.50;92.80;;;;;;4937269;29;20038;-56
2021/01/23 04:58:56;;;;;;;0.93;0.50;;;5.60;92.50;;;;;;4951524;28;20027;-56
2021/01/23 05:01:21;;;;;;;0.68;0.60;;;5.60;92.50;;;;;;4933206;28;20031;-63
2021/01/23 05:04:00;;;;;;;1.00;0.68;;;5.60;92.50;;;;;;4953803;28;20554;-56
2021/01/23 05:06:26;;;;;;;0.52;0.40;;;5.60;92.50;;;;;;4951764;28;20023;-56
2021/01/23 05:08:51;;;;;;;0.98;0.60;;;5.60;92.50;;;;;;4938553;28;20034;-57
2021/01/23 05:11:17;;;;;;;0.95;0.60;;;5.50;92.50;;;;;;4937197;29;20383;-57
2021/01/23 05:13:44;;;;;;;0.60;0.50;;;5.60;92.50;;;;;;4951610;28;20172;-56
2021/01/23 05:16:30;;;;;;;0.50;0.50;;;5.50;92.50;;;;;;4936360;28;20035;-57
2021/01/23 05:18:57;;;;;;;0.65;0.60;;;5.50;92.50;;;;;;4919013;29;20082;-57
2021/01/23 05:21:22;;;;;;;0.82;0.60;;;5.50;92.40;;;;;;4947265;29;20059;-57
2021/01/23 05:24:00;;;;;;;1.90;0.45;;;5.50;92.50;;;;;;4931091;29;20063;-57
2021/01/23 05:26:26;;;;;;;1.30;0.75;;;5.50;92.40;;;;;;4930549;29;20063;-57
2021/01/23 05:28:51;;;;;;;0.82;0.70;;;5.50;92.40;;;;;;4935271;29;20035;-57
2021/01/23 05:31:17;;;;;;;1.10;0.60;;;5.50;92.40;;;;;;4948128;29;20043;-56
2021/01/23 05:33:43;;;;;;;0.52;0.52;;;5.50;92.40;;;;;;4935147;29;20028;-57
2021/01/23 05:36:13;;;;;;;0.68;0.60;;;5.50;92.40;;;;;;4932100;29;20110;-58
2021/01/23 05:38:41;;;;;;;1.00;0.57;;;5.50;92.40;;;;;;4933559;29;20024;-56
2021/01/23 05:41:08;;;;;;;1.17;0.70;;;5.50;92.40;;;;;;4945620;28;20032;-57
2021/01/23 05:43:46;;;;;;;0.88;0.68;;;5.50;92.30;;;;;;4935976;29;20652;-57
2021/01/23 05:46:27;;;;;;;1.10;0.40;;;5.50;92.40;;;;;;4949844;28;20047;-57
2021/01/23 05:48:53;;;;;;;1.65;0.70;;;5.50;92.30;;;;;;4952364;28;20032;-55
2021/01/23 05:51:19;;;;;;;0.50;0.40;;;5.50;92.40;;;;;;4953171;28;20046;-57
2021/01/23 05:53:45;;;;;;;1.27;0.55;;;5.50;92.40;;;;;;4945922;28;20036;-56
2021/01/23 05:56:10;;;;;;;0.57;0.50;;;5.50;92.40;;;;;;4938934;29;20055;-56
2021/01/23 05:58:40;;;;;;;0.60;0.60;;;5.50;92.40;;;;;;4950515;28;20078;-57
2021/01/23 06:01:08;;;;;;;1.08;0.57;;;5.50;92.40;;;;;;4954621;28;20019;-58
2021/01/23 06:03:38;;;;;;;0.80;0.68;;;5.50;92.30;;;;;;4950097;29;20035;-57
2021/01/23 06:06:04;;;;;;;0.73;0.52;;;5.50;92.30;;;;;;4944731;29;20508;-56
2021/01/23 06:08:44;;;;;;;0.50;0.50;;;5.50;92.30;;;;;;4954035;28;20031;-56
2021/01/23 06:11:19;;;;;;;0.82;0.63;;;5.50;92.30;;;;;;4954396;28;20111;-57
2021/01/23 06:13:51;;;;;;;0.47;0.40;;;5.50;92.40;;;;;;4935793;29;20039;-56
2021/01/23 06:16:32;;;;;;;0.52;0.45;;;5.50;92.40;;;;;;4937947;29;20488;-57
2021/01/23 06:18:58;;;;;;;0.40;0.40;;;5.50;92.30;;;;;;4937663;28;20051;-58
2021/01/23 06:21:44;;;;;;;1.42;0.60;;;5.50;92.40;;;;;;4955591;28;20046;-56
2021/01/23 06:24:13;;;;;;;0.77;0.60;;;5.50;92.40;;;;;;4954263;28;20030;-57
2021/01/23 06:27:05;;;;;;;0.63;0.52;;;5.50;92.40;;;;;;4957722;28;20027;-57
2021/01/23 06:29:32;;;;;;;0.90;0.68;;;5.50;92.40;;;;;;4940464;29;20039;-56
2021/01/23 06:31:58;;;;;;;1.77;0.68;;;5.50;92.40;;;;;;4961055;28;20085;-57
2021/01/23 06:34:25;;;;;;;0.75;0.60;;;5.50;92.40;;;;;;4941748;29;20031;-56
2021/01/23 06:37:15;;;;;;;0.60;0.60;;;5.50;92.40;;;;;;4962190;28;20047;-57
2021/01/23 06:39:55;;;;;;;1.45;0.60;;;5.50;92.40;;;;;;4942674;28;20033;-57
2021/01/23 06:42:24;;;;;;;0.65;0.60;;;5.50;92.30;;;;;;4959137;28;20407;-57
2021/01/23 06:44:50;;;;;;;0.90;0.73;;;5.50;92.30;;;;;;4956798;28;20205;-57
2021/01/23 06:47:15;;;;;;;0.95;0.73;;;5.50;92.30;;;;;;4953429;28;20192;-56
2021/01/23 06:49:41;;;;;;;0.93;0.68;;;5.50;92.30;;;;;;4959856;28;20038;-57
2021/01/23 06:52:07;;;;;;;0.98;0.50;;;5.50;92.30;;;;;;4942317;29;20035;-57
2021/01/23 06:54:33;;;;;;;0.47;0.45;;;5.50;92.30;;;;;;4959020;28;20468;-57
2021/01/23 06:56:58;;;;;;;0.80;0.52;;;5.40;92.30;;;;;;4940997;29;20093;-57
2021/01/23 06:59:31;;;;;;;1.17;0.73;;;5.50;92.30;;;;;;4961278;28;20509;-57
2021/01/23 07:02:10;;;;;;;0.60;0.45;;;5.40;92.30;;;;;;4957812;28;20019;-57
2021/01/23 07:04:36;;;;;;;0.30;0.30;;;5.40;92.30;;;;;;4944681;29;20050;-57
2021/01/23 07:07:08;;;;;;;1.20;0.55;;;5.40;92.30;;;;;;4951298;29;20082;-56
2021/01/23 07:09:52;;;;;;;1.10;0.43;;;5.40;92.30;;;;;;4961805;28;20035;-56
2021/01/23 07:12:45;;;;;;;0.32;0.32;;;5.40;92.30;;;;;;4948098;28;20354;-57
2021/01/23 07:15:24;;;;;;;0.85;0.60;;;5.40;92.30;;;;;;4934158;29;20027;-57
2021/01/23 07:17:49;;;;;;;0.47;0.45;;;5.40;92.30;;;;;;4944026;29;20031;-57
2021/01/23 07:20:19;;;;;;;0.95;0.60;;;5.40;92.30;;;;;;4964021;28;20093;-56
2021/01/23 07:22:45;;;;;;;0.50;0.47;;;5.40;92.30;;;;;;4953101;28;20040;-57
2021/01/23 07:25:14;;;;;;;0.93;0.60;;;5.40;92.30;;;;;;4960184;28;20036;-57
2021/01/23 07:27:40;;;;;;;1.40;0.63;;;5.40;92.30;;;;;;4959104;28;20027;-57
2021/01/23 07:30:15;;;;;;;0.50;0.40;;;5.40;92.30;;;;;;4955916;28;20027;-56
2021/01/23 07:32:42;;;;;;;;;;;5.40;92.30;;;;;;4954204;28;20023;-57
2021/01/23 07:35:08;;;;;;;0.75;0.47;;;5.40;92.30;;;;;;4944428;29;19906;-57
2021/01/23 07:37:44;;;;;;;1.95;0.40;;;5.40;92.20;;;;;;4949493;28;20047;-57
2021/01/23 07:40:15;;;;;;;1.10;0.60;;;5.40;92.30;;;;;;4938810;28;20026;-58
2021/01/23 07:42:40;;;;;;;0.65;0.55;;;5.40;92.30;;;;;;4954845;28;20071;-56
2021/01/23 07:45:08;;;;;;;0.88;0.70;;;5.40;92.30;;;;;;4939388;28;20035;-57
2021/01/23 07:47:34;;;;;;;0.60;0.60;;;5.40;92.30;;;;;;4960957;28;20025;-58
2021/01/23 07:50:13;;;;;;;0.73;0.60;;;5.40;92.30;;;;;;4958946;28;20044;-56
2021/01/23 07:52:39;;;;;;;0.70;0.70;;;5.40;92.30;;;;;;4942892;29;20023;-57
2021/01/23 07:55:05;;;;;;;1.42;0.70;;;5.40;92.20;;;;;;4955186;28;20078;-57
2021/01/23 07:57:31;;;;;;;1.17;0.70;;;5.40;92.30;;;;;;4959425;28;20032;-57
2021/01/23 07:59:56;;;;;;;1.05;0.60;;;5.40;92.20;;;;;;4939756;29;20047;-58
2021/01/23 08:02:22;;;;;;;0.65;0.57;;;5.40;92.20;;;;;;4955445;28;20538;-56
2021/01/23 08:04:49;;;;;;;0.60;0.57;;;5.40;92.20;;;;;;4952189;28;20057;-56
2021/01/23 08:07:31;;;;;;;1.25;0.77;;;5.40;92.20;;;;;;4960013;28;20031;-56
2021/01/23 08:10:10;;;;;;;1.13;0.70;;;5.40;92.20;;;;;;4956703;28;20034;-56
2021/01/23 08:12:36;;;;;;;1.10;0.70;;;5.40;92.20;;;;;;4956621;28;20102;-57
2021/01/23 08:15:02;;;;;;;1.08;0.70;;;5.30;92.20;;;;;;4921287;28;20028;-56
2021/01/23 08:17:40;;;;;;;2.45;0.73;;;5.40;92.20;;;;;;4943426;28;20035;-57
2021/01/23 08:20:16;;;;;;;1.00;0.80;;;5.40;92.10;;;;;;4958186;28;20086;-57
2021/01/23 08:23:09;;;;;;;1.48;0.90;;;5.40;92.10;;;;;;4947887;28;20539;-57
2021/01/23 08:25:37;;;;;;;1.23;0.80;;;5.40;92.10;;;;;;4941080;29;20118;-57
2021/01/23 08:28:04;;;;;;;1.05;0.75;;;5.40;92.10;;;;;;4950319;29;20138;-57
2021/01/23 08:30:29;;;;;;;3.70;1.23;;;5.40;92.10;;;;;;4947683;28;20098;-57
2021/01/23 08:32:56;;;;;;;1.00;0.90;;;5.40;92.10;;;;;;4952612;28;20034;-56
2021/01/23 08:35:23;;;;;;;4.18;0.95;;;5.40;92.10;;;;;;4935399;29;20395;-57
2021/01/23 08:37:49;;;;;;;7.43;1.13;;;5.40;92.10;;;;;;4949508;28;20050;-56
2021/01/23 08:40:24;;;;;;;8.88;1.33;;;5.40;92.10;;;;;;4947031;28;20105;-58
2021/01/23 08:42:50;;;;;;;9.35;1.50;;;5.40;92.10;;;;;;4943957;28;20324;-58
2021/01/23 08:45:16;;;;;;;10.13;1.20;;;5.40;92.10;;;;;;4920825;29;20027;-58
2021/01/23 08:47:42;;;;;;;4.97;1.00;;;5.40;92.10;;;;;;4951621;28;20058;-58
2021/01/23 08:50:08;;;;;;;1.80;1.05;;;5.40;92.00;;;;;;4956707;28;20098;-59
2021/01/23 08:52:34;;;;;;;4.93;1.30;;;5.50;92.00;;;;;;4952812;28;20038;-57
2021/01/23 08:54:59;;;;;;;5.20;1.25;;;5.50;92.00;;;;;;4929500;29;20027;-58
2021/01/23 08:57:25;;;;;;;6.43;1.38;;;5.50;92.00;;;;;;4946807;28;20051;-57
2021/01/23 08:59:50;;;;;;;4.53;1.10;;;5.50;91.90;;;;;;4947558;28;20507;-58
2021/01/23 09:02:16;;;;;;;6.22;1.20;;;5.50;91.90;;;;;;4955409;28;20387;-58
2021/01/23 09:04:41;;;;;;;7.38;1.50;;;5.50;91.90;;;;;;4934287;28;20467;-58
2021/01/23 09:07:08;;;;;;;5.95;1.35;;;5.50;91.90;;;;;;4956102;28;20035;-57
2021/01/23 09:09:34;;;;;;;13.65;1.90;;;5.60;91.90;;;;;;4937775;29;20134;-57
2021/01/23 09:11:59;;;;;;;5.68;1.70;;;5.60;91.90;;;;;;4948379;28;20432;-58
2021/01/23 09:14:25;;;;;;;6.60;1.50;;;5.60;92.00;;;;;;4936100;28;20749;-59
2021/01/23 09:16:52;;;;;;;14.40;3.28;;;5.60;91.70;;;;;;4953898;28;20034;-58
2021/01/23 09:19:19;;;;;;;31.83;4.00;;;5.70;91.80;;;;;;4953453;28;20051;-58
2021/01/23 09:21:44;;;;;;;37.00;3.65;;;5.70;91.80;;;;;;4946616;28;20027;-58
2021/01/23 09:24:10;;;;;;;23.23;2.33;;;5.70;91.70;;;;;;4947847;28;20042;-59
2021/01/23 09:26:35;;;;;;;19.30;2.97;;;5.70;91.80;;;;;;4946520;28;20480;-57
2021/01/23 09:29:01;;;;;;;22.08;3.22;;;5.70;91.70;;;;;;4936972;28;20031;-57
2021/01/23 09:31:26;;;;;;;32.00;3.22;;;5.70;91.70;;;;;;4948667;29;20118;-58
2021/01/23 09:33:52;;;;;;;36.50;3.55;;;5.80;91.80;;;;;;4953890;28;20031;-58
2021/01/23 09:36:17;;;;;;;24.15;2.95;;;5.80;91.80;;;;;;4946670;29;20051;-58
2021/01/23 09:38:43;;;;;;;23.50;3.83;;;5.80;91.70;;;;;;4951237;28;20613;-59
2021/01/23 09:41:10;;;;;;;36.58;3.92;;;5.80;91.70;;;;;;4960467;28;20031;-57
2021/01/23 09:43:35;;;;;;;53.53;4.32;;;5.80;91.70;;;;;;4955654;28;20047;-58
2021/01/23 09:46:01;;;;;;;133.52;9.48;;;5.90;91.70;;;;;;4941357;28;20054;-58
2021/01/23 09:48:27;;;;;;;37.72;4.05;;;5.90;91.60;;;;;;4950592;28;20043;-58
2021/01/23 09:50:52;;;;;;;31.90;3.20;;;5.90;91.60;;;;;;4959371;28;20738;-58
2021/01/23 09:53:18;;;;;;;41.22;5.72;;;5.90;91.60;;;;;;4948773;28;20035;-58
2021/01/23 09:55:43;;;;;;;39.58;4.97;;;6.00;91.50;;;;;;4957888;28;20032;-58
2021/01/23 09:58:09;;;;;;;56.47;5.88;;;6.30;91.50;;;;;;4948236;28;20035;-59
2021/01/23 10:00:34;;;;;;;18.88;3.40;;;6.00;91.50;;;;;;4955726;28;20032;-57
2021/01/23 10:03:00;;;;;;;33.72;3.40;;;6.00;91.40;;;;;;4927989;29;20043;-58
2021/01/23 10:05:25;;;;;;;62.05;6.95;;;6.00;91.50;;;;;;4935363;29;20094;-57
2021/01/23 10:07:51;;;;;;;80.18;7.25;;;6.10;91.50;;;;;;4952836;28;20086;-58
2021/01/23 10:10:16;;;;;;;39.65;4.80;;;6.10;91.50;;;;;;4948451;29;20054;-58
2021/01/23 10:12:42;;;;;;;33.03;3.80;;;6.10;91.50;;;;;;4934946;28;20030;-57
2021/01/23 10:15:08;;;;;;;42.33;4.57;;;6.10;91.30;;;;;;4947424;28;20036;-58
2021/01/23 10:17:34;;;;;;;45.45;4.57;;;6.10;91.30;;;;;;4949411;28;20031;-57
2021/01/23 10:19:59;;;;;;;33.03;4.57;;;6.10;91.30;;;;;;4951306;28;20053;-58
2021/01/23 10:22:24;;;;;;;29.92;4.03;;;6.20;91.20;;;;;;4945748;28;20035;-58
2021/01/23 10:24:50;;;;;;;30.23;4.25;;;6.20;91.20;;;;;;4946815;28;20031;-58
2021/01/23 10:27:16;;;;;;;31.02;3.97;;;6.20;91.10;;;;;;4932313;28;20026;-57
2021/01/23 10:29:41;;;;;;;52.80;4.90;;;6.20;91.00;;;;;;4932558;29;20524;-58
2021/01/23 10:32:07;;;;;;;63.30;7.05;;;6.30;91.00;;;;;;4952186;28;20030;-58
2021/01/23 10:34:32;;;;;;;53.10;7.80;;;6.30;91.00;;;;;;4948158;28;20476;-58
2021/01/23 10:36:57;;;;;;;26.60;4.32;;;6.30;91.00;;;;;;4932626;29;20027;-57
2021/01/23 10:39:23;;;;;;;44.40;6.38;;;6.30;90.90;;;;;;4947047;28;20569;-58
2021/01/23 10:41:49;;;;;;;37.63;5.25;;;6.30;90.90;;;;;;4928695;29;20055;-56
2021/01/23 10:44:14;;;;;;;31.08;4.32;;;6.30;90.90;;;;;;4934960;29;20055;-58
2021/01/23 10:46:40;;;;;;;32.22;4.82;;;6.40;91.00;;;;;;4949416;28;20035;-59
2021/01/23 10:49:05;;;;;;;26.70;4.15;;;6.40;90.90;;;;;;4936076;29;20047;-59
2021/01/23 10:51:31;;;;;;;43.13;3.75;;;6.40;90.80;;;;;;4919408;28;20093;-58
2021/01/23 10:53:56;;;;;;;39.10;4.82;;;6.40;90.80;;;;;;4935305;29;20422;-58
2021/01/23 10:56:22;;;;;;;29.05;3.83;;;6.40;90.70;;;;;;4950579;28;20054;-58
2021/01/23 10:58:47;;;;;;;18.73;4.30;;;6.40;90.70;;;;;;4952041;28;20482;-58
2021/01/23 11:01:13;;;;;;;31.48;4.13;;;6.50;90.50;;;;;;4937774;28;20036;-57
2021/01/23 11:03:38;;;;;;;35.65;4.50;;;6.50;90.50;;;;;;4946850;29;20055;-58
2021/01/23 11:06:04;;;;;;;51.05;5.65;;;6.50;90.50;;;;;;4939227;28;20039;-58
2021/01/23 11:08:30;;;;;;;29.65;3.63;;;6.50;90.40;;;;;;4917279;29;20039;-58
2021/01/23 11:10:55;;;;;;;28.77;4.43;;;6.50;90.40;;;;;;4943112;28;20392;-57
2021/01/23 11:13:22;;;;;;;22.90;3.33;;;6.50;90.30;;;;;;4948822;28;20540;-57
2021/01/23 11:15:47;;;;;;;30.27;4.30;;;6.60;90.30;;;;;;4950303;28;20042;-58
2021/01/23 11:18:13;;;;;;;19.33;3.13;;;6.60;90.30;;;;;;4935433;29;20031;-59
2021/01/23 11:20:38;;;;;;;21.48;3.30;;;6.60;90.30;;;;;;4942822;28;20373;-58
2021/01/23 11:23:04;;;;;;;21.48;3.55;;;6.60;90.30;;;;;;4933295;29;20031;-58
2021/01/23 11:25:29;;;;;;;34.15;4.32;;;6.60;90.20;;;;;;4952803;28;20028;-58
2021/01/23 11:27:55;;;;;;;29.25;4.05;;;6.60;90.20;;;;;;4948512;28;20032;-59
2021/01/23 11:30:21;;;;;;;23.33;3.53;;;6.60;90.10;;;;;;4939059;28;20027;-58
2021/01/23 11:32:47;;;;;;;29.73;4.07;;;6.70;90.10;;;;;;4945185;28;21147;-57
2021/01/23 11:35:12;;;;;;;26.25;4.22;;;6.70;90.10;;;;;;4929842;29;20037;-57
2021/01/23 11:37:38;;;;;;;17.92;2.80;;;6.70;90.10;;;;;;4951127;28;20047;-57
2021/01/23 11:40:05;;;;;;;19.83;3.90;;;6.70;90.00;;;;;;4951952;28;20035;-58
2021/01/23 11:42:30;;;;;;;26.23;3.67;;;6.70;89.60;;;;;;4934558;29;20024;-57
2021/01/23 11:44:56;;;;;;;28.50;3.33;;;6.80;89.60;;;;;;4934890;28;20387;-59
2021/01/23 11:47:21;;;;;;;28.50;3.63;;;6.80;89.20;;;;;;4948504;28;20040;-58
2021/01/23 11:49:47;;;;;;;36.50;4.03;;;6.80;89.10;;;;;;4933106;28;20039;-59
2021/01/23 11:52:12;;;;;;;20.73;3.70;;;6.80;89.10;;;;;;4947029;29;20046;-58
2021/01/23 11:54:38;;;;;;;28.25;4.55;;;6.80;89.20;;;;;;4952520;28;20086;-58
2021/01/23 11:57:06;;;;;;;34.38;4.68;;;6.80;89.30;;;;;;4950047;28;20019;-57
2021/01/23 11:59:32;;;;;;;31.08;4.53;;;6.90;89.40;;;;;;4951467;29;20086;-57
2021/01/23 12:01:58;;;;;;;24.30;4.45;;;6.90;89.30;;;;;;4942783;28;20035;-59
2021/01/23 12:04:23;;;;;;;21.25;3.95;;;6.90;89.30;;;;;;4948441;28;20030;-58
2021/01/23 12:06:49;;;;;;;22.90;3.55;;;6.90;89.20;;;;;;4945497;28;20037;-58
2021/01/23 12:09:14;;;;;;;26.20;3.22;;;6.90;89.00;;;;;;4950390;28;20034;-59
2021/01/23 12:11:40;;;;;;;27.83;3.50;;;6.90;88.90;;;;;;4944405;28;20534;-59
2021/01/23 12:14:05;;;;;;;16.48;3.22;;;6.90;88.80;;;;;;4949611;28;20661;-59
2021/01/23 12:16:31;;;;;;;18.30;3.25;;;6.90;88.80;;;;;;4951100;29;20031;-57
2021/01/23 12:18:56;;;;;;;28.15;3.50;;;7.00;88.70;;;;;;4954446;28;20051;-59
2021/01/23 12:21:23;;;;;;;10.35;3.15;;;6.90;88.50;;;;;;4946656;28;20036;-59
2021/01/23 12:23:49;;;;;;;18.15;3.08;;;7.00;88.60;;;;;;4946544;29;20483;-57
2021/01/23 12:26:15;;;;;;;18.48;3.05;;;7.00;88.50;;;;;;4943541;28;20035;-58
2021/01/23 12:28:40;;;;;;;28.50;3.60;;;7.00;88.20;;;;;;4949572;28;20038;-58
2021/01/23 12:31:06;;;;;;;25.75;3.58;;;7.00;88.20;;;;;;4933271;29;20031;-58
2021/01/23 12:33:31;;;;;;;23.95;3.35;;;7.00;88.40;;;;;;4955533;28;20379;-57
2021/01/23 12:35:57;;;;;;;17.48;3.63;;;7.00;88.40;;;;;;4949847;28;20038;-59
2021/01/23 12:38:22;;;;;;;24.60;3.30;;;7.00;88.40;;;;;;4951493;28;20039;-56
2021/01/23 12:40:48;;;;;;;15.80;3.42;;;7.00;88.50;;;;;;4950993;28;20500;-58
2021/01/23 12:43:13;;;;;;;23.80;3.80;;;7.10;88.60;;;;;;4936279;28;20082;-57
2021/01/23 12:45:39;;;;;;;29.58;4.00;;;7.10;88.50;;;;;;4942630;29;20047;-58
2021/01/23 12:48:05;;;;;;;20.95;3.30;;;7.10;88.30;;;;;;4951198;28;20039;-59
2021/01/23 12:50:30;;;;;;;33.58;3.63;;;7.10;88.30;;;;;;4946564;29;20090;-59
2021/01/23 12:52:56;;;;;;;30.08;5.07;;;7.20;88.30;;;;;;4950208;28;20110;-58
2021/01/23 12:55:21;;;;;;;32.13;4.43;;;7.10;88.20;;;;;;4949441;28;20043;-59
2021/01/23 12:57:47;;;;;;;25.13;5.10;;;7.20;88.40;;;;;;4935213;28;20035;-59